This is the latest recevied weather packets stored in our database for station/object KA9CBS. If no packets are shown the sender has not sent any weather packets the latest 1 day(s).
| Time | Temp. | Humidity | Pressure | Rain* | Wind** | Luminosity | Snow |
|---|---|---|---|---|---|---|---|
| 1778100111 | 15° C | 62% | 1017 hPa | 0 mm | - | 167 W/m² | - |
| 1778099809 | 15° C | 64% | 1017 hPa | 0 mm | - | 140 W/m² | - |
| 1778099506 | 15° C | 65% | 1017.2 hPa | 0 mm | - | 156 W/m² | - |
| 1778099204 | 15° C | 63% | 1017.4 hPa | 0 mm | - | 225 W/m² | - |
| 1778097990 | 13.89° C | 67% | 1017.2 hPa | 0 mm | - | 244 W/m² | - |
| 1778097080 | 13.89° C | 69% | 1017.4 hPa | 0 mm | - | 68 W/m² | - |
| 1778095261 | 15° C | 61% | 1017.2 hPa | 0 mm | - | 422 W/m² | - |
| 1778094351 | 14.44° C | 61% | 1016.7 hPa | 0 mm | - | 472 W/m² | - |
| 1778094048 | 15° C | 60% | 1016.9 hPa | 0 mm | - | 574 W/m² | - |
| 1778092532 | 14.44° C | 69% | 1017.3 hPa | 0 mm | - | 624 W/m² | - |
| 1778091018 | 14.44° C | 70% | 1017.5 hPa | 0 mm | - | 480 W/m² | - |
| 1778090411 | 13.89° C | 71% | 1017.5 hPa | 0 mm | - | 359 W/m² | - |
| 1778087684 | 12.78° C | 73% | 1017.8 hPa | 0 mm | - | 321 W/m² | - |
| 1778087382 | 12.78° C | 76% | 1017.9 hPa | 0 mm | - | 331 W/m² | - |
| 1778086475 | 12.78° C | 79% | 1017.6 hPa | 0 mm | - | 351 W/m² | - |
| 1778085566 | 12.22° C | 80% | 1017.6 hPa | 0 mm | - | 308 W/m² | - |
| 1778084653 | 12.22° C | 81% | 1017.5 hPa | 0 mm | - | 342 W/m² | - |
| 1778081417 | 11.11° C | 87% | 1017 hPa | 0 mm | - | 317 W/m² | - |
| 1778081114 | 10.56° C | 87% | 1017 hPa | 0 mm | - | 297 W/m² | - |
| 1778079296 | 10° C | 90% | 1017.1 hPa | 0 mm | - | 96 W/m² | - |
| 1778078994 | 10° C | 91% | 1017.2 hPa | 0 mm | - | 113 W/m² | - |
| 1778078085 | 10° C | 94% | 1016.9 hPa | 0 mm | - | 120 W/m² | - |
| 1778077179 | 9.44° C | 95% | 1016.2 hPa | 0 mm | - | 151 W/m² | - |
| 1778075058 | 8.89° C | 98% | 1016.2 hPa | 0 mm | - | 62 W/m² | - |
| 1778074755 | 8.89° C | 98% | 1016.3 hPa | 0 mm | - | 56 W/m² | - |
* Rain latest hour (hover to see other rain measurements)
** Current wind speed in m/s (hover to see current wind gust speed)